Time;durP1;ratioP1;P1;durP2;ratioP2;P2;SDS_P1;SDS_P2;PMS_P1;PMS_P2;Temp;Humidity;BMP_temperature;BMP_pressure;BME280_temperature;BME280_humidity;BME280_pressure;Samples;Min_cycle;Max_cycle;Signal;HPM_P1;HPM_P2
2022/09/21 00:01:12;;;;;;;6.20;3.67;;;;;;;9.64;81.68;150078.22;1777915;80;21021;-73
2022/09/21 00:03:41;;;;;;;6.33;2.87;;;;;;;9.65;81.82;150080.81;1775568;80;20978;-63
2022/09/21 00:06:11;;;;;;;5.00;3.15;;;;;;;9.66;82.15;150083.41;1768321;80;21080;-73
2022/09/21 00:08:37;;;;;;;6.05;3.08;;;;;;;9.70;82.51;150093.78;1773504;80;21434;-71
2022/09/21 00:11:05;;;;;;;5.28;2.75;;;;;;;9.74;82.86;150102.88;1775316;80;21908;-74
2022/09/21 00:13:32;;;;;;;4.80;3.27;;;;;;;9.78;83.25;150111.91;1768922;80;21096;-72
2022/09/21 00:16:00;;;;;;;4.62;2.95;;;;;;;9.82;83.21;150122.28;1774845;80;20953;-64
2022/09/21 00:18:27;;;;;;;7.33;3.42;;;;;;;9.85;83.23;150131.38;1772608;80;21167;-63
2022/09/21 00:20:54;;;;;;;5.25;2.80;;;;;;;9.87;83.18;150135.28;1769339;80;21362;-63
2022/09/21 00:23:20;;;;;;;4.35;2.90;;;;;;;9.87;83.15;150135.28;1768847;80;21183;-63
2022/09/21 00:25:48;;;;;;;6.65;3.60;;;;;;;9.87;83.18;150135.28;1776154;80;21065;-63
2022/09/21 00:28:15;;;;;;;5.25;3.30;;;;;;;9.88;83.31;150137.88;1778422;80;21019;-72
2022/09/21 00:30:42;;;;;;;5.65;3.10;;;;;;;9.89;83.54;150141.75;1773950;80;21273;-71
2022/09/21 00:33:09;;;;;;;7.03;3.10;;;;;;;9.92;83.54;150148.25;1781613;80;21038;-72
2022/09/21 00:35:37;;;;;;;5.60;3.42;;;;;;;9.94;83.47;150153.44;1781421;79;21240;-71
2022/09/21 00:38:04;;;;;;;6.42;3.33;;;;;;;9.95;83.28;150156.03;1785153;80;21308;-63
2022/09/21 00:40:31;;;;;;;6.00;3.30;;;;;;;9.95;83.11;150154.75;1773890;80;21005;-63
2022/09/21 00:43:14;;;;;;;7.25;3.65;;;;;;;9.95;82.86;150156.03;1778764;80;22017;-72
2022/09/21 00:45:42;;;;;;;4.12;3.17;;;;;;;9.95;82.58;150154.75;1785857;80;21132;-62
2022/09/21 00:48:10;;;;;;;4.42;3.20;;;;;;;9.96;82.30;150158.61;1780109;80;21068;-62
2022/09/21 00:50:41;;;;;;;4.67;3.60;;;;;;;9.95;82.05;150154.75;1767847;80;21510;-63
2022/09/21 00:53:08;;;;;;;6.03;3.22;;;;;;;9.94;81.93;150153.44;1777212;80;20973;-62
2022/09/21 00:55:42;;;;;;;9.60;3.40;;;;;;;9.92;81.81;150148.25;1785633;80;21048;-62
2022/09/21 00:58:14;;;;;;;9.03;3.47;;;;;;;9.90;81.73;150143.06;1774881;80;21260;-62
2022/09/21 01:00:42;;;;;;;5.60;3.60;;;;;;;9.88;81.67;150137.88;1773587;80;21128;-63
2022/09/21 01:03:10;;;;;;;4.75;3.25;;;;;;;9.86;81.56;150132.70;1775047;80;21026;-63
2022/09/21 01:05:37;;;;;;;7.67;3.70;;;;;;;9.84;81.50;150127.52;1781060;80;21020;-64
2022/09/21 01:08:06;;;;;;;7.37;3.50;;;;;;;9.82;81.45;150122.28;1769039;80;21120;-62
2022/09/21 01:11:06;;;;;;;7.00;3.90;;;;;;;9.81;81.44;150119.69;1774703;80;22192;-63
2022/09/21 01:13:59;;;;;;;6.70;3.45;;;;;;;9.82;81.44;150122.28;1780496;80;21162;-63
2022/09/21 01:16:49;;;;;;;9.70;3.55;;;;;;;9.82;81.54;150122.28;1783108;80;21053;-64
2022/09/21 01:19:40;;;;;;;5.20;3.45;;;;;;;9.82;81.55;150123.61;1772856;80;21039;-63
2022/09/21 01:22:21;;;;;;;5.33;3.20;;;;;;;9.83;81.76;150124.87;1776547;80;21528;-64
2022/09/21 01:24:57;;;;;;;5.45;3.60;;;;;;;9.83;81.85;150124.87;1784109;80;21016;-63
2022/09/21 01:27:39;;;;;;;6.30;3.22;;;;;;;9.82;82.10;150122.28;1771766;79;21979;-63
2022/09/21 01:30:10;;;;;;;4.55;3.20;;;;;;;9.82;82.34;150122.28;1777193;80;21034;-62
2022/09/21 01:32:56;;;;;;;3.77;2.55;;;;;;;9.81;82.58;150119.69;1775372;80;21046;-63
2022/09/21 01:35:49;;;;;;;5.17;3.40;;;;;;;9.82;82.73;150122.28;1773760;80;21029;-71
2022/09/21 01:38:40;;;;;;;5.78;3.40;;;;;;;9.80;82.92;150118.42;1772687;80;21489;-62
2022/09/21 01:41:07;;;;;;;8.50;3.37;;;;;;;9.79;83.19;150115.83;1778886;79;21841;-63
2022/09/21 01:43:37;;;;;;;4.30;2.90;;;;;;;9.79;83.55;150114.50;1784150;79;21185;-63
2022/09/21 01:46:08;;;;;;;5.47;3.27;;;;;;;9.80;83.71;150117.09;1775366;80;20972;-72
2022/09/21 01:48:38;;;;;;;4.17;3.10;;;;;;;9.80;83.85;150117.09;1746015;80;21028;-70
2022/09/21 01:51:08;;;;;;;6.50;3.70;;;;;;;9.79;83.91;150115.83;1774458;80;21658;-71
2022/09/21 01:53:49;;;;;;;5.92;3.27;;;;;;;9.80;84.07;150117.09;1776363;80;22180;-70
2022/09/21 01:56:24;;;;;;;6.70;3.50;;;;;;;9.78;84.15;150113.23;1774647;80;21695;-64
2022/09/21 01:58:57;;;;;;;4.62;3.45;;;;;;;9.77;84.28;150110.64;1774945;80;21016;-64
2022/09/21 02:01:24;;;;;;;5.35;3.10;;;;;;;9.75;84.45;150106.73;1781129;79;21083;-70
2022/09/21 02:03:55;;;;;;;6.12;3.67;;;;;;;9.73;84.68;150101.55;1774140;80;21045;-70
2022/09/21 02:06:25;;;;;;;5.95;3.35;;;;;;;9.71;84.74;150095.05;1774791;80;21212;-64
2022/09/21 02:08:52;;;;;;;6.83;3.62;;;;;;;9.70;84.92;150093.78;1771650;80;21085;-71
2022/09/21 02:11:19;;;;;;;5.92;3.40;;;;;;;9.66;84.96;150083.41;1785403;80;21235;-69
2022/09/21 02:13:47;;;;;;;4.45;3.37;;;;;;;9.63;85.20;150075.64;1783474;80;21083;-69
2022/09/21 02:16:40;;;;;;;4.75;3.90;;;;;;;9.58;85.29;150062.62;1749593;80;21047;-62
2022/09/21 02:19:14;;;;;;;4.50;3.45;;;;;;;9.55;85.24;150054.86;1773373;80;21108;-61
2022/09/21 02:21:52;;;;;;;7.33;3.83;;;;;;;9.52;85.37;150047.09;1777703;80;21115;-63
2022/09/21 02:24:42;;;;;;;5.28;3.60;;;;;;;9.49;85.60;150039.31;1781339;80;21116;-62
2022/09/21 02:27:42;;;;;;;6.03;3.15;;;;;;;9.47;85.78;150035.41;1773491;80;21141;-63
2022/09/21 02:30:15;;;;;;;5.65;4.05;;;;;;;9.46;85.93;150032.81;1774962;80;21030;-70
2022/09/21 02:33:09;;;;;;;5.15;3.47;;;;;;;9.44;86.25;150027.63;1770496;80;21696;-70
2022/09/21 02:36:02;;;;;;;7.20;3.80;;;;;;;9.40;86.56;150018.58;1773617;80;20964;-71
2022/09/21 02:38:50;;;;;;;4.80;3.30;;;;;;;9.38;86.85;150013.34;1751030;80;21029;-71
2022/09/21 02:41:35;;;;;;;4.97;3.52;;;;;;;9.37;87.15;150010.77;1778444;80;21503;-70
2022/09/21 02:44:25;;;;;;;4.53;2.92;;;;;;;9.34;87.35;150002.98;1775683;79;21096;-71
2022/09/21 02:47:15;;;;;;;7.37;3.55;;;;;;;9.34;87.50;150002.98;1769828;79;21235;-62
2022/09/21 02:49:47;;;;;;;6.00;2.95;;;;;;;9.34;87.64;150001.72;1779376;80;21073;-71
2022/09/21 02:52:15;;;;;;;4.65;3.25;;;;;;;9.33;87.54;150000.41;1768465;80;21088;-63
2022/09/21 02:54:46;;;;;;;4.47;3.50;;;;;;;9.32;87.45;149997.81;1773756;80;21009;-62
2022/09/21 02:57:15;;;;;;;8.15;3.47;;;;;;;9.30;87.38;149992.63;1771382;80;21033;-63
2022/09/21 02:59:42;;;;;;;5.28;3.20;;;;;;;9.28;87.31;149987.44;1777884;80;21097;-63
2022/09/21 03:02:11;;;;;;;6.53;3.35;;;;;;;9.26;87.24;149982.27;1714765;81;21040;-62
2022/09/21 03:04:41;;;;;;;4.90;3.30;;;;;;;9.24;87.25;149977.08;1772946;80;21673;-62
2022/09/21 03:07:08;;;;;;;6.85;3.22;;;;;;;9.22;87.17;149971.91;1777009;80;21543;-63
2022/09/21 03:09:36;;;;;;;5.80;3.22;;;;;;;9.19;87.23;149965.41;1769101;80;21048;-63
2022/09/21 03:12:04;;;;;;;7.37;3.22;;;;;;;9.15;87.27;149955.03;1775350;80;21256;-70
2022/09/21 03:14:32;;;;;;;3.85;2.83;;;;;;;9.11;87.36;149945.95;1772310;79;21045;-70
2022/09/21 03:16:59;;;;;;;4.53;2.92;;;;;;;9.08;87.38;149938.19;1776607;80;21033;-69
2022/09/21 03:19:28;;;;;;;4.65;2.80;;;;;;;9.06;87.50;149933.00;1776492;80;21380;-71
2022/09/21 03:21:55;;;;;;;3.75;2.90;;;;;;;9.06;87.55;149933.00;1777242;80;20925;-70
2022/09/21 03:27:08;;;;;;;3.60;2.42;;;;;;;9.02;87.46;149922.64;1783563;80;21080;-63
2022/09/21 03:29:35;;;;;;;5.50;2.90;;;;;;;8.99;87.55;149916.14;1777436;80;21104;-63
2022/09/21 03:32:02;;;;;;;6.53;2.80;;;;;;;8.96;87.62;149907.09;1779760;80;21042;-70
2022/09/21 03:34:30;;;;;;;5.87;2.80;;;;;;;8.94;87.68;149903.19;1787441;80;21101;-71
2022/09/21 03:36:57;;;;;;;5.97;2.83;;;;;;;8.93;87.81;149899.28;1783324;79;21275;-71
2022/09/21 03:39:23;;;;;;;6.62;3.20;;;;;;;8.93;87.90;149899.28;1776137;80;20997;-70
2022/09/21 03:41:50;;;;;;;6.05;3.20;;;;;;;8.91;88.09;149894.09;1772194;80;21087;-71
2022/09/21 03:44:18;;;;;;;6.47;3.67;;;;;;;8.91;88.24;149894.09;1776327;80;21056;-68
2022/09/21 03:46:45;;;;;;;4.78;2.85;;;;;;;8.88;88.25;149888.92;1773326;80;21538;-70
2022/09/21 03:49:12;;;;;;;7.15;3.20;;;;;;;8.87;88.29;149886.33;1775060;80;21158;-62
2022/09/21 03:51:40;;;;;;;4.53;3.20;;;;;;;8.85;88.31;149881.16;1779850;80;21527;-63
2022/09/21 03:54:07;;;;;;;6.17;3.42;;;;;;;8.85;88.42;149881.16;1779899;79;21049;-69
2022/09/21 03:56:36;;;;;;;7.55;4.65;;;;;;;8.85;88.55;149879.88;1787597;80;21514;-71
2022/09/21 03:59:03;;;;;;;4.25;2.77;;;;;;;8.86;88.69;149882.47;1783765;80;21065;-63
2022/09/21 04:01:30;;;;;;;6.85;3.50;;;;;;;8.86;88.80;149883.73;1783665;80;21224;-63
2022/09/21 04:03:57;;;;;;;6.20;3.30;;;;;;;8.87;88.98;149886.33;1779967;79;21073;-62
2022/09/21 04:06:24;;;;;;;5.87;3.27;;;;;;;8.91;89.02;149894.09;1785590;80;21028;-63
2022/09/21 04:08:53;;;;;;;5.03;2.90;;;;;;;8.94;89.08;149901.87;1775742;80;21017;-70
2022/09/21 04:11:21;;;;;;;5.83;3.55;;;;;;;9.01;89.09;149920.05;1782859;80;21021;-62
2022/09/21 04:13:52;;;;;;;4.95;3.20;;;;;;;9.11;89.06;149945.95;1787565;79;21740;-71
2022/09/21 04:16:19;;;;;;;12.53;3.50;;;;;;;9.24;88.91;149977.08;1773609;80;21020;-69
2022/09/21 04:18:49;;;;;;;6.10;3.20;;;;;;;9.35;88.55;150004.31;1775923;80;21072;-71
2022/09/21 04:21:15;;;;;;;4.78;2.90;;;;;;;9.46;88.10;150034.13;1787470;79;21076;-70
2022/09/21 04:23:42;;;;;;;7.35;3.02;;;;;;;9.57;87.74;150061.36;1774657;80;21475;-71
2022/09/21 04:26:24;;;;;;;11.12;3.22;;;;;;;9.70;87.33;150092.45;1775212;80;21927;-71
2022/09/21 04:28:51;;;;;;;10.72;3.30;;;;;;;9.80;86.95;150118.42;1778805;80;21028;-69
2022/09/21 04:31:18;;;;;;;8.20;2.70;;;;;;;9.90;86.52;150143.06;1775223;80;21355;-70
2022/09/21 04:33:48;;;;;;;4.90;2.98;;;;;;;9.99;86.09;150165.12;1772526;80;21096;-69
2022/09/21 04:36:19;;;;;;;7.30;2.55;;;;;;;10.09;85.73;150189.77;1778746;80;21558;-70
2022/09/21 04:38:46;;;;;;;5.72;2.80;;;;;;;10.18;85.42;150213.09;1784972;79;21212;-69
2022/09/21 04:41:14;;;;;;;8.00;2.75;;;;;;;10.27;85.28;150236.44;1781549;80;21118;-71
2022/09/21 04:43:42;;;;;;;4.67;2.85;;;;;;;10.40;85.12;150267.59;1743314;80;21399;-68
2022/09/21 04:46:12;;;;;;;8.60;2.85;;;;;;;10.55;84.77;150305.25;1774320;80;21009;-70
2022/09/21 04:48:39;;;;;;;6.70;2.58;;;;;;;10.68;84.42;150337.70;1777696;80;21159;-69
2022/09/21 04:51:07;;;;;;;4.75;3.00;;;;;;;10.77;83.89;150361.09;1775639;80;21573;-63
2022/09/21 04:53:36;;;;;;;7.28;3.00;;;;;;;10.84;83.67;150379.23;1782812;79;21036;-70
2022/09/21 04:56:04;;;;;;;4.05;2.55;;;;;;;10.93;83.64;150401.31;1784355;80;21515;-70
2022/09/21 04:58:32;;;;;;;8.88;2.75;;;;;;;11.10;83.47;150444.14;1780530;79;21037;-69
2022/09/21 05:00:59;;;;;;;5.85;3.08;;;;;;;11.43;82.84;150525.94;1778072;80;21083;-70
2022/09/21 05:03:26;;;;;;;3.77;2.47;;;;;;;11.98;82.04;150664.89;1778684;80;21911;-70
2022/09/21 05:05:55;;;;;;;5.67;2.60;;;;;;;12.84;79.75;150880.66;1776158;80;20964;-69
2022/09/21 05:11:12;;;;;;;5.95;2.55;;;;;;;13.93;73.51;151152.48;1774014;80;21035;-68
2022/09/21 05:13:39;;;;;;;7.87;2.55;;;;;;;14.23;71.83;151229.20;1778027;80;21012;-71
2022/09/21 05:16:06;;;;;;;6.00;2.60;;;;;;;14.40;69.89;151272.17;1772762;80;21234;-69
2022/09/21 05:18:33;;;;;;;8.03;2.20;;;;;;;14.23;69.42;151229.20;1775499;80;21037;-70
2022/09/21 05:21:02;;;;;;;6.17;2.70;;;;;;;14.02;69.65;151177.16;1772568;80;21032;-69
2022/09/21 05:23:29;;;;;;;3.80;2.47;;;;;;;13.79;70.28;151117.33;1777384;80;21060;-70
2022/09/21 05:25:57;;;;;;;8.68;2.92;;;;;;;13.54;71.20;151056.23;1766229;80;20951;-70
2022/09/21 05:28:26;;;;;;;6.30;2.27;;;;;;;13.43;72.00;151028.92;1756774;80;21178;-70
2022/09/21 05:31:23;;;;;;;5.97;2.55;;;;;;;13.36;72.55;151010.64;1759749;80;21006;-63
2022/09/21 05:34:38;;;;;;;7.85;3.02;;;;;;;13.34;72.81;151005.44;1767570;80;21085;-64
2022/09/21 05:37:38;;;;;;;8.58;2.98;;;;;;;13.29;73.31;150993.78;1756793;80;20970;-64
2022/09/21 05:40:08;;;;;;;9.95;2.80;;;;;;;13.23;73.62;150978.14;1756994;80;21030;-63
2022/09/21 05:42:36;;;;;;;5.62;2.67;;;;;;;13.21;74.07;150971.66;1762608;80;21840;-63
2022/09/21 05:45:05;;;;;;;10.70;3.37;;;;;;;13.24;74.28;150980.73;1761050;80;21052;-64
2022/09/21 05:48:10;;;;;;;7.22;2.50;;;;;;;13.28;74.29;150989.86;1759890;80;21004;-62
2022/09/21 05:50:42;;;;;;;5.30;3.17;;;;;;;13.30;74.28;150995.05;1762580;80;21347;-71
2022/09/21 05:53:22;;;;;;;10.50;2.97;;;;;;;13.32;74.21;151000.25;1735971;80;20932;-65
2022/09/21 05:55:59;;;;;;;9.13;2.90;;;;;;;13.36;74.16;151010.64;1764607;80;21877;-72
2022/09/21 05:58:47;;;;;;;4.50;3.10;;;;;;;13.45;74.13;151032.80;1764552;80;21471;-64
2022/09/21 06:01:36;;;;;;;7.00;3.08;;;;;;;13.56;73.60;151060.11;1762166;80;21358;-63
2022/09/21 06:04:04;;;;;;;8.20;4.00;;;;;;;13.63;73.28;151078.34;1753905;80;21021;-64
2022/09/21 06:06:31;;;;;;;7.83;3.30;;;;;;;13.65;72.73;151083.55;1731198;80;21095;-63
2022/09/21 06:08:58;;;;;;;6.28;3.45;;;;;;;13.62;72.77;151075.75;1761711;80;21407;-63
2022/09/21 06:11:28;;;;;;;8.03;3.75;;;;;;;13.64;72.84;151079.62;1760651;80;20960;-64
2022/09/21 06:13:57;;;;;;;12.58;3.55;;;;;;;13.63;73.07;151078.34;1760541;80;21481;-64
2022/09/21 06:16:26;;;;;;;6.55;3.25;;;;;;;13.65;72.97;151082.22;1754422;80;21052;-62
2022/09/21 06:18:53;;;;;;;8.83;2.92;;;;;;;13.67;73.07;151088.75;1759658;80;21767;-63
2022/09/21 06:21:21;;;;;;;6.85;3.12;;;;;;;13.80;72.70;151119.92;1760943;80;20961;-63
2022/09/21 06:23:49;;;;;;;7.65;3.20;;;;;;;13.86;72.24;151136.84;1759937;80;21060;-63
2022/09/21 06:26:16;;;;;;;9.30;3.25;;;;;;;13.92;72.19;151151.17;1763261;79;21117;-64
2022/09/21 06:28:43;;;;;;;8.55;3.35;;;;;;;13.96;72.09;151160.28;1770460;80;21071;-70
2022/09/21 06:31:10;;;;;;;6.05;3.40;;;;;;;14.01;71.71;151174.56;1773734;79;21038;-69
2022/09/21 06:33:37;;;;;;;4.25;2.80;;;;;;;14.09;71.52;151194.08;1768172;78;20980;-64
2022/09/21 06:36:06;;;;;;;5.58;2.70;;;;;;;14.15;71.15;151208.41;1775132;79;21008;-68
2022/09/21 06:38:34;;;;;;;6.90;2.83;;;;;;;14.25;71.08;151233.13;1770705;79;21122;-66
2022/09/21 06:41:02;;;;;;;5.25;2.92;;;;;;;14.41;70.55;151273.45;1735424;79;21003;-64
2022/09/21 06:43:31;;;;;;;4.62;3.00;;;;;;;14.80;69.91;151372.41;1767981;80;21588;-64
2022/09/21 06:46:00;;;;;;;6.90;3.40;;;;;;;15.29;67.81;151496.09;1764187;79;21237;-63
2022/09/21 06:48:27;;;;;;;7.80;2.95;;;;;;;15.51;66.67;151549.47;1769563;80;21091;-65
2022/09/21 06:51:03;;;;;;;6.35;3.20;;;;;;;15.59;65.68;151570.33;1773782;80;22332;-65
2022/09/21 06:53:32;;;;;;;7.05;3.70;;;;;;;15.58;65.25;151567.67;1767701;79;21099;-64
2022/09/21 06:56:04;;;;;;;11.97;3.58;;;;;;;15.59;65.37;151570.33;1767313;79;21064;-64
2022/09/21 06:58:33;;;;;;;4.28;3.15;;;;;;;15.62;65.31;151578.12;1768165;79;22577;-64
2022/09/21 07:01:09;;;;;;;6.20;3.50;;;;;;;15.60;65.12;151574.22;1770344;79;20989;-63
2022/09/21 07:03:37;;;;;;;10.03;3.10;;;;;;;15.52;65.07;151552.06;1768366;79;21067;-63
2022/09/21 07:06:06;;;;;;;7.50;3.50;;;;;;;15.36;65.34;151512.98;1769914;79;21455;-64
2022/09/21 07:08:34;;;;;;;5.72;3.45;;;;;;;15.26;65.85;151486.97;1762070;80;21052;-64
2022/09/21 07:11:02;;;;;;;5.17;3.40;;;;;;;15.22;66.03;151476.56;1765823;78;21242;-65
2022/09/21 07:13:29;;;;;;;8.68;4.00;;;;;;;15.20;66.00;151471.36;1769409;78;21076;-69
2022/09/21 07:15:56;;;;;;;6.60;3.42;;;;;;;15.18;65.62;151468.75;1771355;80;21064;-70
2022/09/21 07:18:23;;;;;;;5.10;3.62;;;;;;;15.16;65.31;151463.56;1770286;78;22179;-69
2022/09/21 07:20:51;;;;;;;7.83;3.90;;;;;;;15.13;65.29;151455.70;1767126;79;21084;-70
2022/09/21 07:23:19;;;;;;;5.20;4.12;;;;;;;15.14;65.57;151457.03;1772189;78;21531;-68
2022/09/21 07:25:51;;;;;;;5.60;3.90;;;;;;;15.22;65.09;151476.56;1778639;79;21008;-69
2022/09/21 07:28:18;;;;;;;4.87;3.27;;;;;;;15.30;64.47;151497.38;1776347;78;21469;-68
2022/09/21 07:30:45;;;;;;;5.53;3.70;;;;;;;15.30;63.87;151497.38;1773005;78;21119;-68
2022/09/21 07:33:12;;;;;;;6.65;3.60;;;;;;;15.28;63.59;151493.50;1777041;78;22138;-69
2022/09/21 07:35:39;;;;;;;6.97;4.08;;;;;;;15.26;63.71;151486.97;1774856;78;21880;-68
2022/09/21 07:38:07;;;;;;;5.78;4.12;;;;;;;15.22;63.73;151476.56;1775688;78;21036;-66
2022/09/21 07:40:34;;;;;;;6.60;3.85;;;;;;;15.21;64.08;151475.23;1777409;78;21079;-64
2022/09/21 07:43:02;;;;;;;5.20;3.77;;;;;;;15.25;63.74;151485.69;1779285;80;21004;-64
2022/09/21 07:45:30;;;;;;;4.92;3.58;;;;;;;15.27;63.81;151489.56;1776865;78;21105;-63
2022/09/21 07:48:04;;;;;;;10.35;3.83;;;;;;;15.37;63.28;151515.64;1778483;80;21527;-64
2022/09/21 07:50:37;;;;;;;11.83;3.75;;;;;;;15.44;63.35;151533.84;1775874;78;21101;-65
2022/09/21 07:53:01;;;;;;;5.15;3.80;;;;;;;15.52;63.33;151553.39;1775040;78;21071;-64
2022/09/21 07:55:28;;;;;;;6.90;3.52;;;;;;;15.58;63.32;151569.00;1775966;79;21513;-66
2022/09/21 08:00:41;;;;;;;5.80;3.25;;;;;;;15.61;62.57;151575.53;1773847;78;21222;-66
2022/09/21 08:03:08;;;;;;;4.08;3.33;;;;;;;15.60;61.93;151572.94;1738463;81;21110;-68
2022/09/21 08:05:36;;;;;;;4.53;3.20;;;;;;;15.61;61.66;151575.53;1719177;81;21074;-67
2022/09/21 08:08:03;;;;;;;5.30;3.50;;;;;;;15.63;60.91;151580.73;1721893;81;22385;-68
2022/09/21 08:10:31;;;;;;;5.95;3.45;;;;;;;15.64;60.78;151583.34;1721349;81;21510;-67
2022/09/21 08:12:58;;;;;;;8.03;3.15;;;;;;;15.63;61.11;151580.73;1729293;81;21083;-69
2022/09/21 08:15:26;;;;;;;7.28;3.20;;;;;;;15.66;61.20;151588.55;1721191;81;21306;-67
2022/09/21 08:17:53;;;;;;;7.75;3.42;;;;;;;15.75;61.53;151610.69;1718475;81;21130;-68
2022/09/21 08:20:20;;;;;;;4.60;2.58;;;;;;;15.87;61.54;151640.64;1743392;80;21130;-67
2022/09/21 08:22:47;;;;;;;2.98;2.50;;;;;;;15.99;59.72;151670.66;1726675;81;20906;-69
2022/09/21 08:25:15;;;;;;;3.92;2.20;;;;;;;16.02;58.96;151679.73;1722091;81;21180;-68
2022/09/21 08:30:16;;;;;;;3.85;1.77;;;;;;;16.08;58.16;151692.81;1796753;77;26579;-68
2022/09/21 08:32:43;;;;;;;2.50;2.00;;;;;;;16.01;57.58;151677.13;1784709;78;21063;-68
2022/09/21 08:35:10;;;;;;;4.30;1.75;;;;;;;16.08;57.04;151692.81;1773499;78;22681;-68
2022/09/21 08:37:38;;;;;;;5.40;1.82;;;;;;;16.10;56.93;151698.02;1767793;78;20944;-67
2022/09/21 08:40:06;;;;;;;2.87;1.80;;;;;;;16.13;57.30;151705.81;1784475;78;21530;-68
2022/09/21 08:42:47;;;;;;;4.58;1.72;;;;;;;16.20;57.31;151724.03;1774934;78;21040;-68
2022/09/21 08:45:17;;;;;;;6.72;2.15;;;;;;;16.31;56.74;151752.72;1772773;78;21246;-69
2022/09/21 08:47:53;;;;;;;4.35;1.82;;;;;;;16.41;56.28;151777.48;1777543;78;21257;-68
2022/09/21 08:50:37;;;;;;;8.50;1.85;;;;;;;16.46;56.36;151790.50;1790840;78;20957;-68
2022/09/21 08:53:22;;;;;;;4.00;2.00;;;;;;;16.57;55.61;151816.55;1777307;78;20933;-67
2022/09/21 08:55:49;;;;;;;2.35;1.40;;;;;;;16.64;55.37;151833.50;1776653;78;21095;-69
2022/09/21 08:58:28;;;;;;;3.75;1.50;;;;;;;16.75;55.09;151862.19;1775315;78;21058;-69
2022/09/21 09:01:33;;;;;;;7.65;1.67;;;;;;;16.89;54.48;151898.66;1779334;78;21983;-68
2022/09/21 09:04:48;;;;;;;5.58;1.52;;;;;;;16.88;54.46;151896.05;1781390;78;21109;-66
2022/09/21 09:08:08;;;;;;;3.35;1.50;;;;;;;16.75;53.21;151862.19;1679976;83;21739;-69
2022/09/21 09:10:59;;;;;;;5.80;1.72;;;;;;;16.61;53.20;151827.00;1779115;78;21991;-68
2022/09/21 09:14:05;;;;;;;6.60;1.60;;;;;;;16.67;54.50;151842.62;1717889;78;21139;-69
2022/09/21 09:16:59;;;;;;;3.70;1.60;;;;;;;16.79;53.55;151872.59;1769622;78;21345;-67
2022/09/21 09:19:44;;;;;;;3.80;1.50;;;;;;;16.88;53.25;151896.05;1743978;78;21360;-68
2022/09/21 09:22:16;;;;;;;5.33;1.90;;;;;;;16.90;53.90;151901.25;1776814;78;25751;-68
2022/09/21 09:24:51;;;;;;;3.70;1.70;;;;;;;16.90;54.78;151901.25;1746798;78;21148;-68
2022/09/21 09:27:30;;;;;;;;;;;;;;;16.85;54.52;151888.23;1794903;78;20993;-68
2022/09/21 09:30:05;;;;;;;3.12;1.45;;;;;;;16.82;54.85;151880.42;1745338;78;21142;-69
2022/09/21 09:32:55;;;;;;;5.00;1.95;;;;;;;16.95;54.45;151913.00;1757641;80;21108;-68
2022/09/21 09:35:32;;;;;;;1.85;1.60;;;;;;;16.95;54.40;151911.72;1751353;80;21028;-67
2022/09/21 09:38:22;;;;;;;2.10;1.60;;;;;;;16.77;54.03;151867.41;1755638;81;21519;-68
2022/09/21 09:41:12;;;;;;;9.10;2.05;;;;;;;16.61;54.25;151828.28;1759484;81;21057;-68
2022/09/21 09:44:13;;;;;;;7.40;1.72;;;;;;;16.51;54.88;151802.25;1757931;80;21152;-69
2022/09/21 09:47:04;;;;;;;10.23;1.87;;;;;;;16.53;54.72;151807.45;1754480;80;20912;-67
2022/09/21 09:49:42;;;;;;;9.18;2.17;;;;;;;16.60;55.16;151825.69;1756543;81;21008;-67
2022/09/21 09:52:11;;;;;;;5.55;1.80;;;;;;;16.57;54.78;151817.88;1755082;80;21044;-68
2022/09/21 09:54:38;;;;;;;2.80;2.00;;;;;;;16.55;54.54;151812.66;1752946;81;21009;-68
2022/09/21 09:57:06;;;;;;;4.53;2.10;;;;;;;16.55;54.74;151811.33;1755061;81;21229;-67
2022/09/21 09:59:47;;;;;;;2.30;2.10;;;;;;;16.56;55.05;151815.27;1756651;80;21610;-68
2022/09/21 10:02:23;;;;;;;2.42;1.98;;;;;;;16.56;55.47;151813.94;1758534;80;21009;-68
2022/09/21 10:05:07;;;;;;;5.22;1.70;;;;;;;16.40;55.14;151773.55;1759670;78;20928;-68
2022/09/21 10:07:44;;;;;;;5.95;1.90;;;;;;;16.27;54.47;151742.31;1755538;81;20912;-68
2022/09/21 10:10:35;;;;;;;6.15;1.90;;;;;;;16.25;54.98;151737.11;1755589;81;21216;-68
2022/09/21 10:13:23;;;;;;;5.37;1.90;;;;;;;16.26;55.18;151738.37;1757260;80;21100;-66
2022/09/21 10:15:57;;;;;;;2.98;1.30;;;;;;;16.22;55.21;151727.97;1759777;80;21529;-69
2022/09/21 10:18:45;;;;;;;4.83;1.80;;;;;;;16.20;54.90;151722.77;1761529;80;21442;-67
2022/09/21 10:21:23;;;;;;;2.72;1.87;;;;;;;16.21;54.98;151726.64;1751697;81;21027;-68
2022/09/21 10:23:58;;;;;;;2.22;1.75;;;;;;;16.22;55.21;151729.25;1758582;80;21311;-67
2022/09/21 10:26:36;;;;;;;4.97;1.72;;;;;;;16.22;53.77;151729.25;1760940;80;20959;-67
2022/09/21 10:29:24;;;;;;;5.55;1.75;;;;;;;16.29;53.13;151746.19;1723756;81;20989;-69
2022/09/21 10:31:59;;;;;;;4.70;2.15;;;;;;;16.41;53.03;151776.16;1748313;80;21465;-67
2022/09/21 10:34:31;;;;;;;4.03;1.70;;;;;;;16.53;53.56;151806.13;1745209;81;21052;-69
2022/09/21 10:36:59;;;;;;;5.47;1.98;;;;;;;16.66;53.07;151838.70;1751562;80;21316;-67
2022/09/21 10:39:30;;;;;;;4.28;2.40;;;;;;;16.65;51.70;151836.09;1742672;80;21037;-68
2022/09/21 10:42:02;;;;;;;3.55;2.20;;;;;;;16.56;51.88;151815.27;1745325;81;21035;-68
2022/09/21 10:44:43;;;;;;;6.70;2.00;;;;;;;16.52;52.65;151804.84;1747028;80;21067;-68
2022/09/21 10:47:37;;;;;;;4.03;2.12;;;;;;;16.57;53.22;151817.88;1700588;82;21526;-65
2022/09/21 10:50:22;;;;;;;6.20;2.02;;;;;;;16.69;52.94;151847.84;1701295;82;21144;-64
2022/09/21 10:52:49;;;;;;;2.10;1.90;;;;;;;16.78;53.02;151870.00;1740725;80;21116;-65
2022/09/21 10:55:19;;;;;;;5.55;2.02;;;;;;;16.82;51.62;151880.42;1748947;80;21084;-64
2022/09/21 10:57:46;;;;;;;2.37;2.10;;;;;;;16.80;51.44;151875.22;1748461;80;20994;-65
2022/09/21 11:00:34;;;;;;;2.72;2.37;;;;;;;16.79;51.59;151872.59;1712822;81;21143;-67
2022/09/21 11:03:00;;;;;;;2.60;1.90;;;;;;;16.87;51.40;151893.44;1703880;82;21248;-69
2022/09/21 11:05:37;;;;;;;7.72;2.30;;;;;;;17.04;51.27;151935.22;1694223;82;21088;-68
2022/09/21 11:08:35;;;;;;;2.45;2.10;;;;;;;17.25;50.77;151987.36;1714596;82;21001;-68
2022/09/21 11:11:24;;;;;;;5.20;2.05;;;;;;;17.28;50.18;151995.17;1707156;82;21093;-68
2022/09/21 11:14:12;;;;;;;4.08;2.00;;;;;;;17.26;49.69;151989.97;1731169;80;21067;-66
2022/09/21 11:16:52;;;;;;;6.72;2.30;;;;;;;17.20;50.25;151975.61;1719234;80;22059;-65
2022/09/21 11:19:40;;;;;;;2.60;1.57;;;;;;;17.22;50.63;151979.55;1725471;80;21097;-65
2022/09/21 11:22:37;;;;;;;1.95;1.57;;;;;;;17.32;48.77;152005.59;1688602;81;21010;-65
2022/09/21 11:25:29;;;;;;;8.13;2.02;;;;;;;17.39;47.78;152023.89;1749132;80;21025;-66
2022/09/21 11:28:31;;;;;;;4.50;1.77;;;;;;;17.44;48.09;152036.91;1749163;80;21151;-68
2022/09/21 11:31:23;;;;;;;2.83;2.00;;;;;;;17.50;48.04;152049.94;1730208;81;21974;-69
2022/09/21 11:33:58;;;;;;;3.08;1.95;;;;;;;17.46;47.77;152042.12;1717182;82;21073;-69
2022/09/21 11:36:47;;;;;;;3.00;2.20;;;;;;;17.33;48.55;152009.53;1703581;82;21061;-69
2022/09/21 11:39:46;;;;;;;2.10;1.90;;;;;;;17.25;49.25;151988.69;1704300;82;21220;-69
2022/09/21 11:42:28;;;;;;;4.08;1.90;;;;;;;17.25;49.49;151987.36;1739421;80;21325;-68
2022/09/21 11:44:59;;;;;;;3.85;1.80;;;;;;;17.32;48.94;152006.92;1745733;80;22633;-68
2022/09/21 11:47:56;;;;;;;2.90;1.90;;;;;;;17.36;48.55;152016.06;1752222;80;21105;-67
2022/09/21 11:50:49;;;;;;;3.75;2.10;;;;;;;17.41;48.11;152029.09;1736772;80;21115;-67
2022/09/21 11:53:39;;;;;;;4.65;2.20;;;;;;;17.47;47.91;152043.45;1732270;80;21056;-67
2022/09/21 11:56:44;;;;;;;3.17;2.02;;;;;;;17.53;48.10;152057.75;1737490;79;21109;-68
2022/09/21 11:59:38;;;;;;;3.63;2.00;;;;;;;17.64;47.45;152086.47;1734612;80;21112;-70
2022/09/21 12:02:39;;;;;;;2.22;1.72;;;;;;;17.73;47.62;152109.92;1739493;80;21368;-64
2022/09/21 12:05:27;;;;;;;1.70;1.50;;;;;;;17.87;47.06;152143.84;1740645;80;21058;-67
2022/09/21 12:08:03;;;;;;;4.58;1.65;;;;;;;18.00;47.13;152177.73;1738166;80;21155;-68
2022/09/21 12:10:55;;;;;;;4.03;2.47;;;;;;;18.12;46.77;152206.50;1726009;80;21117;-67
2022/09/21 12:13:50;;;;;;;2.85;1.77;;;;;;;18.08;46.81;152196.08;1724542;80;22040;-65
2022/09/21 12:16:43;;;;;;;2.50;1.70;;;;;;;17.97;46.99;152168.63;1739701;80;21040;-65